createdAt,value
2022-11-09T00:01:36.489Z,98723.67
2022-11-09T00:04:09.746Z,98723.66
2022-11-09T00:06:41.944Z,98718.55
2022-11-09T00:09:14.326Z,98715.58
2022-11-09T00:11:50.622Z,98718.03
2022-11-09T00:14:23.112Z,98715.74
2022-11-09T00:16:56.763Z,98714.70
2022-11-09T00:19:30.443Z,98715.16
2022-11-09T00:22:02.635Z,98714.08
2022-11-09T00:24:35.998Z,98713.24
2022-11-09T00:27:07.926Z,98712.21
2022-11-09T00:29:43.555Z,98711.70
2022-11-09T00:32:21.951Z,98713.11
2022-11-09T00:34:56.236Z,98710.11
2022-11-09T00:37:29.608Z,98709.58
2022-11-09T00:40:02.865Z,98704.81
2022-11-09T00:42:34.843Z,98706.92
2022-11-09T00:45:08.969Z,98702.70
2022-11-09T00:47:41.237Z,98706.92
2022-11-09T00:50:13.560Z,98708.51
2022-11-09T00:52:49.265Z,98705.34
2022-11-09T00:55:24.283Z,98708.88
2022-11-09T00:57:58.438Z,98706.24
2022-11-09T01:00:30.355Z,98703.98
2022-11-09T01:03:03.194Z,98704.84
2022-11-09T01:05:41.788Z,98705.70
2022-11-09T01:08:15.829Z,98707.11
2022-11-09T01:10:50.668Z,98708.85
2022-11-09T01:13:26.810Z,98706.23
2022-11-09T01:15:59.652Z,98704.98
2022-11-09T01:18:32.366Z,98703.05
2022-11-09T01:21:07.870Z,98701.81
2022-11-09T01:23:42.817Z,98699.17
2022-11-09T01:26:16.805Z,98703.04
2022-11-09T01:28:50.708Z,98700.08
2022-11-09T01:31:23.510Z,98699.89
2022-11-09T01:33:57.616Z,98698.83
2022-11-09T01:36:30.516Z,98699.55
2022-11-09T01:39:04.362Z,98694.10
2022-11-09T01:41:36.910Z,98691.28
2022-11-09T01:44:17.126Z,98694.27
2022-11-09T01:46:55.066Z,98691.27
2022-11-09T01:49:41.209Z,98689.64
2022-11-09T01:52:17.499Z,98682.23
2022-11-09T01:54:52.604Z,98682.71
2022-11-09T01:57:29.625Z,98676.38
2022-11-09T02:00:07.947Z,98671.42
2022-11-09T02:02:42.552Z,98667.17
2022-11-09T02:05:21.166Z,98669.45
2022-11-09T02:07:54.005Z,98671.49
2022-11-09T02:10:28.264Z,98671.63
2022-11-09T02:13:07.343Z,98667.02
2022-11-09T02:15:44.437Z,98668.70
2022-11-09T02:18:19.240Z,98668.95
2022-11-09T02:20:54.426Z,98666.43
2022-11-09T02:23:27.226Z,98664.41
2022-11-09T02:26:02.938Z,98663.23
2022-11-09T02:28:34.996Z,98666.94
2022-11-09T02:31:09.704Z,98665.25
2022-11-09T02:33:56.369Z,98668.73
2022-11-09T02:36:28.778Z,98667.84
2022-11-09T02:39:01.445Z,98662.39
2022-11-09T02:41:36.834Z,98664.47
2022-11-09T02:44:08.970Z,98664.26
2022-11-09T02:46:43.142Z,98671.34
2022-11-09T02:49:18.298Z,98670.27
2022-11-09T02:51:51.542Z,98672.50
2022-11-09T02:54:24.399Z,98675.98
2022-11-09T02:56:57.768Z,98678.35
2022-11-09T02:59:30.012Z,98673.57
2022-11-09T03:02:04.738Z,98678.23
2022-11-09T03:04:39.432Z,98683.59
2022-11-09T03:07:12.325Z,98678.63
2022-11-09T03:09:44.515Z,98680.04
2022-11-09T03:12:32.071Z,98680.18
2022-11-09T03:15:07.737Z,98681.02
2022-11-09T03:17:39.831Z,98680.29
2022-11-09T03:20:13.849Z,98676.11
2022-11-09T03:22:45.610Z,98683.14
2022-11-09T03:25:20.518Z,98681.02
2022-11-09T03:27:52.776Z,98679.41
2022-11-09T03:30:28.036Z,98677.64
2022-11-09T03:33:06.573Z,98673.56
2022-11-09T03:35:38.622Z,98676.40
2022-11-09T03:38:10.703Z,98674.46
2022-11-09T03:40:42.630Z,98675.90
2022-11-09T03:43:14.716Z,98675.02
2022-11-09T03:45:47.490Z,98669.42
2022-11-09T03:48:20.055Z,98666.77
2022-11-09T03:50:53.274Z,98662.30
2022-11-09T03:53:25.285Z,98664.38
2022-11-09T03:56:00.635Z,98661.75
2022-11-09T03:58:33.630Z,98655.95
2022-11-09T04:01:05.506Z,98660.20
2022-11-09T04:03:41.756Z,98651.62
2022-11-09T04:06:15.306Z,98649.52
2022-11-09T04:08:51.462Z,98648.09
2022-11-09T04:11:24.233Z,98644.20
2022-11-09T04:13:58.554Z,98642.13
2022-11-09T04:16:31.024Z,98640.15
2022-11-09T04:19:04.019Z,98643.05
2022-11-09T04:21:37.634Z,98639.70
2022-11-09T04:24:11.897Z,98637.92
2022-11-09T04:26:44.593Z,98637.54
2022-11-09T04:29:17.424Z,98636.98
2022-11-09T04:31:51.910Z,98635.86
2022-11-09T04:34:25.485Z,98639.33
2022-11-09T04:36:59.129Z,98640.89
2022-11-09T04:39:32.820Z,98644.55
2022-11-09T04:42:06.575Z,98643.02
2022-11-09T04:44:38.916Z,98649.13
2022-11-09T04:47:11.528Z,98645.75
2022-11-09T04:49:44.089Z,98641.71
2022-11-09T04:52:20.003Z,98646.21
2022-11-09T04:54:54.042Z,98649.96
2022-11-09T04:57:26.186Z,98645.69
2022-11-09T04:59:57.964Z,98649.90
2022-11-09T05:02:32.061Z,98648.02
2022-11-09T05:05:04.339Z,98647.54
2022-11-09T05:07:37.640Z,98647.73
2022-11-09T05:10:10.527Z,98646.64
2022-11-09T05:12:45.609Z,98645.41
2022-11-09T05:15:18.478Z,98642.91
2022-11-09T05:17:50.888Z,98641.93
2022-11-09T05:20:23.907Z,98638.48
2022-11-09T05:23:17.626Z,98646.02
2022-11-09T05:25:52.256Z,98642.38
2022-11-09T05:28:31.029Z,98643.25
2022-11-09T05:31:04.318Z,98652.20
2022-11-09T05:33:39.223Z,98648.05
2022-11-09T05:36:12.839Z,98644.52
2022-11-09T05:38:44.693Z,98649.53
2022-11-09T05:41:17.351Z,98651.44
2022-11-09T05:43:51.114Z,98652.84
2022-11-09T05:46:23.033Z,98656.70
2022-11-09T05:48:57.593Z,98660.73
2022-11-09T05:51:33.342Z,98662.34
2022-11-09T05:54:05.996Z,98656.07
2022-11-09T05:56:39.845Z,98659.04
2022-11-09T05:59:13.054Z,98657.74
2022-11-09T06:01:46.114Z,98654.57
2022-11-09T06:04:18.680Z,98661.63
2022-11-09T06:06:52.318Z,98671.20
2022-11-09T06:09:26.307Z,98672.02
2022-11-09T06:11:59.288Z,98661.53
2022-11-09T06:14:40.553Z,98657.21
2022-11-09T06:17:12.500Z,98664.63
2022-11-09T06:19:44.391Z,98671.90
2022-11-09T06:22:16.614Z,98665.52
2022-11-09T06:24:49.216Z,98672.00
2022-11-09T06:27:21.981Z,98675.52
2022-11-09T06:29:55.211Z,98677.11
2022-11-09T06:32:27.317Z,98676.98
2022-11-09T06:35:02.928Z,98675.61
2022-11-09T06:37:35.422Z,98682.32
2022-11-09T06:40:10.150Z,98682.39
2022-11-09T06:42:45.381Z,98679.89
2022-11-09T06:45:18.054Z,98678.58
2022-11-09T06:47:50.380Z,98677.23
2022-11-09T06:50:22.586Z,98680.13
2022-11-09T06:52:59.264Z,98680.41
2022-11-09T06:55:33.130Z,98675.03
2022-11-09T06:58:09.210Z,98673.31
2022-11-09T07:00:41.373Z,98673.55
2022-11-09T07:03:16.613Z,98675.40
2022-11-09T07:05:49.649Z,98675.30
2022-11-09T07:08:24.172Z,98669.23
2022-11-09T07:10:56.633Z,98665.82
2022-11-09T07:13:28.663Z,98662.88
2022-11-09T07:16:02.598Z,98663.25
2022-11-09T07:18:36.438Z,98665.17
2022-11-09T07:21:14.242Z,98665.37
2022-11-09T07:23:48.808Z,98663.52
2022-11-09T07:26:21.689Z,98661.99
2022-11-09T07:28:55.259Z,98659.06
2022-11-09T07:31:29.753Z,98653.41
2022-11-09T07:34:05.413Z,98655.23
2022-11-09T07:36:37.872Z,98649.47
2022-11-09T07:39:09.812Z,98653.88
2022-11-09T07:41:41.629Z,98648.08
2022-11-09T07:44:18.245Z,98642.45
2022-11-09T07:46:51.590Z,98648.04
2022-11-09T07:49:24.307Z,98647.63
2022-11-09T07:51:57.008Z,98643.11
2022-11-09T07:54:29.816Z,98637.89
2022-11-09T07:57:02.885Z,98636.57
2022-11-09T07:59:37.079Z,98637.52
2022-11-09T08:02:12.993Z,98631.77
2022-11-09T08:04:45.773Z,98630.42
2022-11-09T08:07:19.799Z,98628.71
2022-11-09T08:09:51.994Z,98623.52
2022-11-09T08:12:24.942Z,98627.58
2022-11-09T08:14:57.396Z,98624.26
2022-11-09T08:17:29.686Z,98624.71
2022-11-09T08:20:05.108Z,98628.09
2022-11-09T08:22:43.966Z,98624.10
2022-11-09T08:25:16.813Z,98624.69
2022-11-09T08:27:51.074Z,98626.77
2022-11-09T08:30:24.050Z,98626.50
2022-11-09T08:32:56.990Z,98625.10
2022-11-09T08:35:34.564Z,98624.92
2022-11-09T08:38:09.613Z,98623.94
2022-11-09T08:40:46.550Z,98625.25
2022-11-09T08:43:21.825Z,98627.33
2022-11-09T08:45:55.629Z,98616.29
2022-11-09T08:48:33.740Z,98615.84
2022-11-09T08:51:08.964Z,98618.12
2022-11-09T08:53:45.959Z,98615.52
2022-11-09T08:56:20.689Z,98608.85
2022-11-09T08:58:54.568Z,98613.25
2022-11-09T09:01:30.287Z,98613.64
2022-11-09T09:04:07.280Z,98616.46
2022-11-09T09:06:42.957Z,98613.48
2022-11-09T09:09:19.731Z,98611.49
2022-11-09T09:11:53.964Z,98612.34
2022-11-09T09:14:28.923Z,98613.72
2022-11-09T09:17:03.617Z,98615.77
2022-11-09T09:19:38.565Z,98619.80
2022-11-09T09:22:13.899Z,98621.48
2022-11-09T09:24:48.572Z,98624.02
2022-11-09T09:27:22.750Z,98620.52
2022-11-09T09:29:57.427Z,98619.59
2022-11-09T09:32:31.598Z,98619.92
2022-11-09T09:35:06.156Z,98624.04
2022-11-09T09:37:42.906Z,98626.92
2022-11-09T09:40:27.042Z,98629.10
2022-11-09T09:43:02.686Z,98624.89
2022-11-09T09:45:38.075Z,98620.91
2022-11-09T09:48:22.761Z,98624.27
2022-11-09T09:50:57.240Z,98622.88
2022-11-09T09:53:36.592Z,98619.85
2022-11-09T09:56:16.013Z,98616.02
2022-11-09T09:58:51.712Z,98616.78
2022-11-09T10:01:28.654Z,98616.39
2022-11-09T10:04:01.999Z,98616.46
2022-11-09T10:06:42.025Z,98610.18
2022-11-09T10:09:21.685Z,98604.64
2022-11-09T10:12:01.720Z,98606.92
2022-11-09T10:14:46.164Z,98609.25
2022-11-09T10:17:25.443Z,98610.41
2022-11-09T10:20:09.015Z,98614.42
2022-11-09T10:22:47.202Z,98611.52
2022-11-09T10:25:43.388Z,98608.39
2022-11-09T10:28:17.541Z,98610.60
2022-11-09T10:30:49.619Z,98612.17
2022-11-09T10:33:22.542Z,98608.30
2022-11-09T10:35:56.558Z,98610.37
2022-11-09T10:38:38.117Z,98605.71
2022-11-09T10:41:23.682Z,98600.19
2022-11-09T10:43:58.119Z,98600.48
2022-11-09T10:46:31.686Z,98597.13
2022-11-09T10:49:21.535Z,98590.10
2022-11-09T10:51:53.606Z,98585.89
2022-11-09T10:54:29.254Z,98586.79
2022-11-09T10:57:13.928Z,98587.27
2022-11-09T10:59:52.072Z,98580.98
2022-11-09T11:02:50.145Z,98580.00
2022-11-09T11:05:35.132Z,98580.52
2022-11-09T11:08:27.361Z,98580.76
2022-11-09T11:11:33.259Z,98581.27
2022-11-09T11:14:23.515Z,98579.36
2022-11-09T11:16:57.961Z,98573.02
2022-11-09T11:19:37.626Z,98573.79
2022-11-09T11:22:23.153Z,98569.75
2022-11-09T11:24:59.044Z,98572.94
2022-11-09T11:27:39.647Z,98570.94
2022-11-09T11:30:18.279Z,98568.29
2022-11-09T11:32:51.545Z,98566.82
2022-11-09T11:35:35.002Z,98571.11
2022-11-09T11:38:18.240Z,98573.83
2022-11-09T11:41:02.607Z,98576.73
2022-11-09T11:43:45.544Z,98578.13
2022-11-09T11:46:23.487Z,98575.10
2022-11-09T11:49:15.937Z,98571.52
2022-11-09T11:51:54.292Z,98571.09
2022-11-09T11:54:32.356Z,98566.88
2022-11-09T11:57:18.700Z,98565.18
2022-11-09T12:00:10.538Z,98565.73
2022-11-09T12:03:15.248Z,98562.63
2022-11-09T12:05:59.562Z,98566.02
2022-11-09T12:08:40.473Z,98567.36
2022-11-09T12:11:16.895Z,98567.23
2022-11-09T12:14:00.093Z,98562.66
2022-11-09T12:16:41.072Z,98563.72
2022-11-09T12:19:35.233Z,98563.71
2022-11-09T12:22:17.721Z,98564.54
2022-11-09T12:24:59.571Z,98559.53
2022-11-09T12:27:48.276Z,98557.81
2022-11-09T12:30:22.394Z,98558.48
2022-11-09T12:32:57.861Z,98559.17
2022-11-09T12:35:33.797Z,98558.89
2022-11-09T12:38:14.158Z,98557.77
2022-11-09T12:40:52.165Z,98560.88
2022-11-09T12:43:29.721Z,98554.95
2022-11-09T12:46:03.326Z,98555.87
2022-11-09T12:48:36.250Z,98554.75
2022-11-09T12:51:10.229Z,98555.28
2022-11-09T12:53:43.164Z,98553.27
2022-11-09T12:56:24.141Z,98548.48
2022-11-09T12:59:29.530Z,98548.36
2022-11-09T13:02:05.377Z,98545.74
2022-11-09T13:04:37.926Z,98551.10
2022-11-09T13:07:39.610Z,98549.09
2022-11-09T13:10:28.313Z,98545.51
2022-11-09T13:13:22.971Z,98539.18
2022-11-09T13:16:12.535Z,98532.64
2022-11-09T13:18:53.562Z,98533.99
2022-11-09T13:21:37.897Z,98539.00
2022-11-09T13:24:57.185Z,98538.36
2022-11-09T13:27:47.207Z,98542.77
2022-11-09T13:30:53.246Z,98545.04
2022-11-09T13:33:27.410Z,98547.49
2022-11-09T13:36:16.005Z,98553.90
2022-11-09T13:38:48.387Z,98549.51
2022-11-09T13:41:44.460Z,98550.27
2022-11-09T13:44:32.811Z,98553.66
2022-11-09T13:47:25.306Z,98558.35
2022-11-09T13:49:57.773Z,98564.91
2022-11-09T13:52:59.762Z,98561.07
2022-11-09T13:55:39.034Z,98563.13
2022-11-09T13:58:25.059Z,98566.42
2022-11-09T14:00:57.744Z,98567.08
2022-11-09T14:03:31.718Z,98564.55
2022-11-09T14:06:05.542Z,98568.02
2022-11-09T14:08:40.742Z,98573.66
2022-11-09T14:11:36.028Z,98573.20
2022-11-09T14:14:28.736Z,98571.03
2022-11-09T14:17:08.453Z,98573.66
2022-11-09T14:19:48.040Z,98574.59
2022-11-09T14:22:22.696Z,98573.92
2022-11-09T14:24:55.673Z,98573.02
2022-11-09T14:27:30.790Z,98575.88
2022-11-09T14:30:14.984Z,98576.75
2022-11-09T14:32:53.489Z,98578.30
2022-11-09T14:35:28.777Z,98589.39
2022-11-09T14:38:05.552Z,98587.58
2022-11-09T14:40:38.405Z,98591.44
2022-11-09T14:43:31.015Z,98592.15
2022-11-09T14:46:04.465Z,98591.37
2022-11-09T14:48:38.950Z,98595.20
2022-11-09T14:51:16.729Z,98595.07
2022-11-09T14:53:50.532Z,98592.45
2022-11-09T14:56:23.589Z,98589.10
2022-11-09T14:58:58.085Z,98589.90
2022-11-09T15:01:31.028Z,98593.19
2022-11-09T15:04:20.272Z,98591.50
2022-11-09T15:06:57.966Z,98591.55
2022-11-09T15:09:36.573Z,98592.28
2022-11-09T15:12:16.056Z,98594.13
2022-11-09T15:14:54.388Z,98595.12
2022-11-09T15:17:29.221Z,98592.02
2022-11-09T15:20:05.029Z,98588.60
2022-11-09T15:22:53.515Z,98586.67
2022-11-09T15:25:29.152Z,98592.46
2022-11-09T15:28:19.114Z,98596.78
2022-11-09T15:31:12.822Z,98601.11
2022-11-09T15:33:53.099Z,98601.39
2022-11-09T15:36:38.941Z,98602.68
2022-11-09T15:39:19.006Z,98604.64
2022-11-09T15:41:51.326Z,98603.50
2022-11-09T15:44:23.637Z,98606.56
2022-11-09T15:46:57.088Z,98607.20
2022-11-09T15:49:30.708Z,98603.27
2022-11-09T15:52:04.002Z,98603.15
2022-11-09T15:54:36.474Z,98607.15
2022-11-09T15:57:11.309Z,98610.80
2022-11-09T15:59:44.111Z,98608.42
2022-11-09T16:09:34.315Z,98610.23
2022-11-09T16:12:07.949Z,98604.36
2022-11-09T16:14:40.333Z,98601.76
2022-11-09T16:17:12.963Z,98596.30
2022-11-09T16:19:44.760Z,98596.33
2022-11-09T16:22:20.804Z,98600.61
2022-11-09T16:24:52.940Z,98601.54
2022-11-09T16:27:49.108Z,98599.26
2022-11-09T16:30:18.763Z,98605.79
2022-11-09T16:32:52.284Z,98607.77
2022-11-09T16:35:27.583Z,98604.29
2022-11-09T16:38:01.241Z,98604.31
2022-11-09T16:40:36.727Z,98605.58
2022-11-09T16:43:09.392Z,98599.25
2022-11-09T16:45:48.802Z,98600.38
2022-11-09T16:48:21.788Z,98605.89
2022-11-09T16:50:55.109Z,98609.30
2022-11-09T16:53:27.467Z,98608.98
2022-11-09T16:56:00.947Z,98612.20
2022-11-09T16:58:36.800Z,98617.16
2022-11-09T17:01:11.957Z,98619.14
2022-11-09T17:03:44.875Z,98617.94
2022-11-09T17:06:21.819Z,98623.41
2022-11-09T17:08:59.734Z,98619.02
2022-11-09T17:11:34.572Z,98621.67
2022-11-09T17:14:08.841Z,98627.86
2022-11-09T17:16:43.105Z,98627.89
2022-11-09T17:19:17.901Z,98632.67
2022-11-09T17:21:50.781Z,98635.69
2022-11-09T17:24:23.929Z,98635.88
2022-11-09T17:26:59.834Z,98636.57
2022-11-09T17:29:32.910Z,98643.09
2022-11-09T17:32:05.975Z,98645.73
2022-11-09T17:34:41.677Z,98646.97
2022-11-09T17:37:13.935Z,98646.83
2022-11-09T17:39:47.352Z,98645.76
2022-11-09T17:42:21.451Z,98642.79
2022-11-09T17:44:53.783Z,98642.08
2022-11-09T17:47:30.072Z,98641.22
2022-11-09T17:50:03.049Z,98640.01
2022-11-09T17:52:36.708Z,98639.48
2022-11-09T17:55:13.224Z,98636.50
2022-11-09T17:57:50.532Z,98640.89
2022-11-09T18:00:24.317Z,98636.86
2022-11-09T18:02:58.603Z,98633.52
2022-11-09T18:05:31.396Z,98636.86
2022-11-09T18:08:03.981Z,98633.89
2022-11-09T18:10:37.889Z,98629.85
2022-11-09T18:13:13.345Z,98627.75
2022-11-09T18:15:49.110Z,98624.25
2022-11-09T18:18:26.717Z,98621.97
2022-11-09T18:20:58.852Z,98621.83
2022-11-09T18:23:31.763Z,98624.09
2022-11-09T18:26:05.228Z,98622.19
2022-11-09T18:28:39.186Z,98627.46
2022-11-09T18:31:13.525Z,98628.52
2022-11-09T18:33:46.106Z,98631.87
2022-11-09T18:36:19.789Z,98630.46
2022-11-09T18:38:55.832Z,98631.52
2022-11-09T18:41:28.280Z,98634.87
2022-11-09T18:44:02.510Z,98638.40
2022-11-09T18:46:35.781Z,98633.65
2022-11-09T18:49:13.897Z,98634.16
2022-11-09T18:51:47.570Z,98635.06
2022-11-09T18:54:22.277Z,98633.48
2022-11-09T18:56:55.108Z,98632.95
2022-11-09T18:59:27.911Z,98628.90
2022-11-09T19:02:04.464Z,98625.40
2022-11-09T19:04:38.037Z,98626.29
2022-11-09T19:07:10.488Z,98622.77
2022-11-09T19:09:47.025Z,98622.42
2022-11-09T19:12:19.795Z,98629.45
2022-11-09T19:14:52.287Z,98630.16
2022-11-09T19:17:24.065Z,98637.00
2022-11-09T19:19:56.210Z,98639.80
2022-11-09T19:22:31.037Z,98642.79
2022-11-09T19:25:04.570Z,98645.26
2022-11-09T19:27:39.071Z,98653.34
2022-11-09T19:30:13.724Z,98653.70
2022-11-09T19:32:45.782Z,98656.17
2022-11-09T19:35:24.863Z,98660.75
2022-11-09T19:38:05.987Z,98663.36
2022-11-09T19:40:40.500Z,98655.82
2022-11-09T19:43:13.692Z,98655.46
2022-11-09T19:45:45.854Z,98655.11
2022-11-09T19:48:19.163Z,98658.80
2022-11-09T19:50:52.781Z,98659.85
2022-11-09T19:53:26.424Z,98663.54
2022-11-09T19:56:05.161Z,98668.11
2022-11-09T19:58:40.842Z,98663.02
2022-11-09T20:01:16.473Z,98662.31
2022-11-09T20:03:51.290Z,98663.37
2022-11-09T20:06:24.725Z,98659.16
2022-11-09T20:08:59.559Z,98659.15
2022-11-09T20:11:51.226Z,98653.00
2022-11-09T20:14:25.147Z,98658.27
2022-11-09T20:17:03.057Z,98657.58
2022-11-09T20:19:35.823Z,98654.23
2022-11-09T20:22:08.712Z,98648.61
2022-11-09T20:24:41.073Z,98654.58
2022-11-09T20:27:16.903Z,98648.08
2022-11-09T20:29:51.399Z,98654.41
2022-11-09T20:32:25.478Z,98653.88
2022-11-09T20:34:58.760Z,98661.09
2022-11-09T20:37:32.669Z,98662.30
2022-11-09T20:40:08.131Z,98670.39
2022-11-09T20:42:43.803Z,98672.67
2022-11-09T20:45:16.607Z,98674.95
2022-11-09T20:48:07.695Z,98674.09
2022-11-09T20:50:42.997Z,98676.38
2022-11-09T20:53:16.208Z,98680.40
2022-11-09T20:55:50.032Z,98680.23
2022-11-09T20:58:24.121Z,98680.58
2022-11-09T21:01:05.463Z,98678.83
2022-11-09T21:03:38.274Z,98680.23
2022-11-09T21:06:12.465Z,98678.83
2022-11-09T21:08:47.505Z,98677.79
2022-11-09T21:11:22.295Z,98675.30
2022-11-09T21:13:56.520Z,98679.52
2022-11-09T21:16:30.764Z,98676.17
2022-11-09T21:19:06.177Z,98676.89
2022-11-09T21:21:40.625Z,98673.70
2022-11-09T21:24:34.142Z,98679.12
2022-11-09T21:27:31.655Z,98678.27
2022-11-09T21:30:05.030Z,98680.19
2022-11-09T21:32:36.970Z,98681.77
2022-11-09T21:35:11.515Z,98680.54
2022-11-09T21:37:43.940Z,98684.41
2022-11-09T21:40:17.833Z,98690.23
2022-11-09T21:42:51.175Z,98692.66
2022-11-09T21:45:24.547Z,98690.20
2022-11-09T21:48:01.322Z,98682.86
2022-11-09T21:50:35.789Z,98684.98
2022-11-09T21:53:09.083Z,98688.50
2022-11-09T21:55:41.257Z,98693.59
2022-11-09T21:58:13.271Z,98696.89
2022-11-09T22:00:48.104Z,98690.58
2022-11-09T22:03:22.166Z,98692.55
2022-11-09T22:05:54.384Z,98690.95
2022-11-09T22:08:28.621Z,98696.40
2022-11-09T22:11:07.783Z,98690.26
2022-11-09T22:14:00.842Z,98694.29
2022-11-09T22:16:35.786Z,98700.10
2022-11-09T22:19:26.730Z,98700.45
2022-11-09T22:22:00.764Z,98703.08
2022-11-09T22:24:32.637Z,98702.74
2022-11-09T22:27:05.859Z,98693.08
2022-11-09T22:29:37.776Z,98693.77
2022-11-09T22:32:11.007Z,98689.21
2022-11-09T22:34:44.983Z,98687.63
2022-11-09T22:37:16.990Z,98697.64
2022-11-09T22:39:49.404Z,98696.94
2022-11-09T22:42:21.227Z,98690.96
2022-11-09T22:44:53.300Z,98698.17
2022-11-09T22:47:28.090Z,98701.52
2022-11-09T22:50:00.607Z,98705.02
2022-11-09T22:52:33.822Z,98707.30
2022-11-09T22:55:09.094Z,98703.27
2022-11-09T22:57:43.721Z,98714.88
2022-11-09T23:00:19.249Z,98718.56
2022-11-09T23:02:52.485Z,98715.40
2022-11-09T23:05:24.720Z,98716.27
2022-11-09T23:07:59.142Z,98716.98
2022-11-09T23:10:32.360Z,98718.89
2022-11-09T23:13:08.304Z,98724.88
2022-11-09T23:15:40.229Z,98726.28
2022-11-09T23:18:29.865Z,98728.92
2022-11-09T23:21:03.785Z,98731.39
2022-11-09T23:23:35.803Z,98724.02
2022-11-09T23:26:08.377Z,98724.72
2022-11-09T23:28:40.542Z,98725.77
2022-11-09T23:31:14.441Z,98733.15
2022-11-09T23:33:46.408Z,98740.37
2022-11-09T23:36:18.620Z,98740.21
2022-11-09T23:38:50.649Z,98737.95
2022-11-09T23:41:22.640Z,98729.85
2022-11-09T23:43:57.141Z,98734.59
2022-11-09T23:46:28.926Z,98736.19
2022-11-09T23:49:00.842Z,98735.30
2022-11-09T23:51:32.557Z,98734.95
2022-11-09T23:54:05.321Z,98736.55
2022-11-09T23:56:37.096Z,98731.27
2022-11-09T23:59:09.225Z,98737.59
